Time;durP1;ratioP1;P1;durP2;ratioP2;P2;SDS_P1;SDS_P2;PMS_P1;PMS_P2;Temp;Humidity;BMP_temperature;BMP_pressure;BME280_temperature;BME280_humidity;BME280_pressure;Samples;Min_cycle;Max_cycle;Signal;HPM_P1;HPM_P2
2023/08/05 00:00:13;;;;;;;112.53;3.13;;;19.80;57.20;;;;;;5039757;28;20256;-80
2023/08/05 00:02:38;;;;;;;115.77;3.57;;;20.20;57.30;;;;;;5039951;28;20173;-80
2023/08/05 00:05:05;;;;;;;112.47;3.20;;;19.90;57.40;;;;;;5038873;28;20416;-80
2023/08/05 00:07:31;;;;;;;113.00;3.67;;;19.80;56.50;;;;;;5040047;28;20181;-80
2023/08/05 00:09:56;;;;;;;113.07;3.67;;;19.90;57.30;;;;;;5037727;28;20445;-80
2023/08/05 00:12:22;;;;;;;112.77;3.43;;;19.80;57.60;;;;;;5038958;28;20172;-80
2023/08/05 00:14:48;;;;;;;113.13;3.57;;;19.80;57.70;;;;;;5036951;28;20199;-80
2023/08/05 00:17:13;;;;;;;112.23;3.10;;;20.00;57.90;;;;;;5039214;28;20571;-80
2023/08/05 00:19:39;;;;;;;112.67;3.27;;;19.70;57.60;;;;;;5038777;28;20235;-80
2023/08/05 00:22:04;;;;;;;112.90;3.50;;;19.70;57.60;;;;;;5038962;28;20569;-80
2023/08/05 00:24:30;;;;;;;113.10;3.80;;;19.70;57.60;;;;;;5018782;28;20185;-80
2023/08/05 00:26:55;;;;;;;112.23;2.93;;;19.80;57.70;;;;;;5019319;28;20360;-80
2023/08/05 00:29:21;;;;;;;112.53;3.27;;;19.90;57.80;;;;;;5037568;28;20201;-80
2023/08/05 00:31:47;;;;;;;112.73;3.50;;;20.20;58.10;;;;;;5038921;28;20181;-80
2023/08/05 00:34:12;;;;;;;112.40;3.23;;;20.10;57.00;;;;;;5039018;28;20609;-80
2023/08/05 00:36:38;;;;;;;112.97;3.67;;;19.90;57.40;;;;;;5039831;28;20215;-80
2023/08/05 00:39:03;;;;;;;112.77;3.40;;;20.20;58.10;;;;;;5038760;28;20246;-80
2023/08/05 00:41:29;;;;;;;112.37;3.13;;;20.40;57.70;;;;;;5038406;28;20558;-80
2023/08/05 00:43:54;;;;;;;113.47;3.50;;;20.00;56.90;;;;;;5038427;28;20171;-80
2023/08/05 00:46:22;;;;;;;112.57;3.20;;;19.90;57.70;;;;;;5038123;28;20539;-80
2023/08/05 00:48:51;;;;;;;112.77;3.63;;;20.00;57.90;;;;;;5035432;28;20284;-80
2023/08/05 00:51:18;;;;;;;113.10;3.50;;;19.90;57.30;;;;;;5038396;28;20417;-80
2023/08/05 00:53:45;;;;;;;113.17;3.67;;;20.00;57.10;;;;;;5038114;28;20933;-80
2023/08/05 00:56:11;;;;;;;112.80;3.47;;;19.90;56.60;;;;;;5036477;28;20764;-80
2023/08/05 00:58:38;;;;;;;112.97;3.40;;;19.80;57.20;;;;;;5039100;28;20551;-80
2023/08/05 01:01:03;;;;;;;113.27;3.50;;;19.90;57.10;;;;;;5038117;28;20459;-80
2023/08/05 01:03:29;;;;;;;113.93;3.90;;;19.90;56.50;;;;;;5038348;28;20404;-80
2023/08/05 01:05:56;;;;;;;113.27;3.30;;;19.80;57.00;;;;;;5037897;28;20274;-80
2023/08/05 01:08:22;;;;;;;112.90;3.30;;;20.10;57.70;;;;;;5038123;28;20561;-80
2023/08/05 01:10:48;;;;;;;113.37;3.50;;;19.80;57.00;;;;;;5035178;28;20779;-80
2023/08/05 01:13:14;;;;;;;113.33;3.60;;;20.00;57.90;;;;;;5022992;28;20432;-80
2023/08/05 01:15:40;;;;;;;113.10;3.50;;;19.80;57.60;;;;;;5038060;28;20413;-80
2023/08/05 01:18:07;;;;;;;114.60;3.40;;;19.70;57.60;;;;;;5040587;28;20720;-80
2023/08/05 01:20:50;;;;;;;113.50;3.73;;;19.90;57.10;;;;;;5037462;28;20453;-80
2023/08/05 01:23:42;;;;;;;112.90;3.20;;;19.80;57.00;;;;;;5037668;28;20414;-80
2023/08/05 01:26:10;;;;;;;113.27;3.80;;;19.80;56.80;;;;;;5035989;28;20461;-80
2023/08/05 01:28:37;;;;;;;113.60;3.90;;;19.70;57.50;;;;;;5036743;28;20754;-80
2023/08/05 01:31:04;;;;;;;113.37;3.60;;;20.00;58.10;;;;;;5034748;28;20470;-80
2023/08/05 01:33:31;;;;;;;113.37;3.57;;;20.10;56.60;;;;;;5036586;28;20517;-80
2023/08/05 01:35:57;;;;;;;113.00;3.17;;;20.40;56.90;;;;;;5036334;28;20401;-80
2023/08/05 01:38:22;;;;;;;113.23;3.40;;;19.80;57.60;;;;;;5036688;28;20520;-80
2023/08/05 01:40:48;;;;;;;113.50;3.77;;;20.10;57.10;;;;;;5036840;28;20208;-80
2023/08/05 01:43:13;;;;;;;113.37;3.50;;;19.90;57.00;;;;;;5036920;28;20174;-81
2023/08/05 01:45:39;;;;;;;113.47;3.60;;;19.80;56.90;;;;;;5036561;28;20236;-80
2023/08/05 01:48:05;;;;;;;114.07;3.77;;;19.90;57.40;;;;;;5035571;28;20185;-80
2023/08/05 01:50:30;;;;;;;113.33;3.47;;;19.80;57.20;;;;;;5036412;28;20664;-80
2023/08/05 01:52:56;;;;;;;113.00;3.37;;;19.70;56.70;;;;;;5036169;28;20206;-81
2023/08/05 01:55:21;;;;;;;113.47;3.53;;;19.70;57.10;;;;;;5036263;28;20546;-80
2023/08/05 01:57:47;;;;;;;113.17;3.37;;;19.60;57.50;;;;;;5036317;28;20193;-80
2023/08/05 02:00:13;;;;;;;113.03;3.33;;;20.00;57.80;;;;;;5036283;28;20533;-80
2023/08/05 02:02:38;;;;;;;113.30;3.60;;;19.80;57.40;;;;;;5035973;28;20166;-80
2023/08/05 02:05:04;;;;;;;113.50;3.63;;;19.80;57.70;;;;;;5035750;28;20590;-80
2023/08/05 02:07:30;;;;;;;113.90;3.90;;;19.60;57.50;;;;;;5036169;28;20185;-81
2023/08/05 02:09:55;;;;;;;113.70;3.67;;;20.10;58.00;;;;;;5036526;28;20757;-80
2023/08/05 02:12:21;;;;;;;113.37;3.43;;;19.60;56.90;;;;;;5036623;28;20236;-80
2023/08/05 02:14:46;;;;;;;113.90;3.93;;;19.60;57.50;;;;;;5037029;28;20181;-81
2023/08/05 02:17:12;;;;;;;113.60;3.80;;;19.90;57.70;;;;;;5036570;28;20174;-81
2023/08/05 02:19:37;;;;;;;113.20;3.30;;;19.60;57.10;;;;;;5036238;28;20238;-80
2023/08/05 02:22:03;;;;;;;113.30;3.33;;;19.60;57.20;;;;;;5036442;28;20205;-80
2023/08/05 02:24:28;;;;;;;113.43;3.47;;;19.60;57.50;;;;;;5036032;28;20230;-80
2023/08/05 02:26:54;;;;;;;112.97;3.17;;;20.00;57.50;;;;;;5036740;28;20175;-80
2023/08/05 02:29:19;;;;;;;113.40;3.40;;;19.90;57.20;;;;;;5036541;28;20196;-80
2023/08/05 02:31:45;;;;;;;113.53;3.63;;;20.00;57.00;;;;;;5037271;28;20176;-80
2023/08/05 02:34:11;;;;;;;113.00;3.13;;;20.00;55.30;;;;;;5037485;28;20185;-80
2023/08/05 02:36:36;;;;;;;115.33;3.50;;;20.20;53.70;;;;;;5036287;28;20249;-80
2023/08/05 02:39:02;;;;;;;113.37;3.50;;;20.10;53.50;;;;;;5035159;28;20196;-80
2023/08/05 02:41:28;;;;;;;113.07;3.13;;;20.20;54.10;;;;;;5036608;28;20193;-80
2023/08/05 02:43:53;;;;;;;113.30;3.40;;;20.40;53.20;;;;;;5037254;28;20756;-80
2023/08/05 02:46:19;;;;;;;113.07;3.43;;;20.20;52.90;;;;;;5036582;28;20185;-81
2023/08/05 02:48:44;;;;;;;113.30;3.23;;;19.90;55.10;;;;;;5037281;28;20324;-80
2023/08/05 02:51:10;;;;;;;113.20;3.30;;;20.10;55.40;;;;;;5035832;28;20300;-80
2023/08/05 02:53:36;;;;;;;113.57;3.47;;;19.90;54.40;;;;;;5036817;28;20177;-80
2023/08/05 02:56:02;;;;;;;122.80;4.00;;;19.80;56.10;;;;;;5036698;28;20189;-80
2023/08/05 02:58:28;;;;;;;113.73;3.70;;;19.60;56.30;;;;;;5036618;28;20259;-80
2023/08/05 03:00:54;;;;;;;113.87;3.60;;;19.70;57.00;;;;;;5036084;28;20458;-80
2023/08/05 03:03:19;;;;;;;113.50;3.43;;;19.90;56.30;;;;;;5036631;28;20409;-80
2023/08/05 03:05:45;;;;;;;113.20;3.20;;;19.90;55.70;;;;;;5036590;28;20404;-80
2023/08/05 03:08:10;;;;;;;113.57;3.53;;;19.80;55.40;;;;;;5034665;28;20193;-80
2023/08/05 03:10:39;;;;;;;113.50;3.67;;;20.00;56.40;;;;;;5036533;28;20178;-80
2023/08/05 03:13:04;;;;;;;113.53;3.27;;;19.70;56.50;;;;;;5036366;28;20309;-80
2023/08/05 03:15:30;;;;;;;113.70;3.23;;;19.80;57.10;;;;;;5036419;28;20452;-80
2023/08/05 03:17:55;;;;;;;114.20;3.80;;;19.70;56.10;;;;;;5035929;28;20222;-80
2023/08/05 03:20:30;;;;;;;113.23;3.47;;;19.70;56.50;;;;;;5036100;28;20194;-80
2023/08/05 03:22:56;;;;;;;113.47;3.33;;;19.70;56.50;;;;;;5036348;28;20183;-80
2023/08/05 03:25:23;;;;;;;113.40;3.33;;;19.80;57.70;;;;;;5035909;28;20416;-80
2023/08/05 03:27:50;;;;;;;113.67;3.50;;;19.60;57.30;;;;;;5035787;28;20494;-80
2023/08/05 03:30:16;;;;;;;114.07;3.53;;;19.60;57.00;;;;;;5036330;28;20411;-81
2023/08/05 03:32:42;;;;;;;113.73;3.63;;;19.70;56.90;;;;;;5035593;28;20432;-80
2023/08/05 03:35:08;;;;;;;113.50;3.30;;;19.70;56.30;;;;;;5036095;28;20482;-80
2023/08/05 03:37:33;;;;;;;113.17;3.10;;;19.70;56.60;;;;;;5036261;28;20177;-81
2023/08/05 03:39:59;;;;;;;113.40;3.13;;;20.00;57.60;;;;;;5033219;28;20453;-81
2023/08/05 03:42:24;;;;;;;113.43;3.27;;;19.60;57.10;;;;;;5034000;28;20256;-80
2023/08/05 03:44:50;;;;;;;113.67;3.40;;;19.60;57.50;;;;;;5035942;28;20574;-80
2023/08/05 03:47:16;;;;;;;113.30;3.30;;;19.60;56.60;;;;;;5035374;28;20191;-80
2023/08/05 03:49:41;;;;;;;114.50;3.77;;;19.70;57.60;;;;;;5038311;28;20197;-81
2023/08/05 03:52:08;;;;;;;113.77;3.40;;;19.90;57.50;;;;;;5038958;28;20184;-80
2023/08/05 03:54:33;;;;;;;114.47;3.33;;;20.00;57.30;;;;;;5039530;28;20554;-81
2023/08/05 03:56:59;;;;;;;113.90;3.60;;;19.80;56.00;;;;;;5039194;28;20414;-80
2023/08/05 03:59:25;;;;;;;113.53;3.30;;;20.00;56.60;;;;;;5040001;28;20633;-80
2023/08/05 04:01:52;;;;;;;113.43;3.10;;;19.70;56.30;;;;;;5039361;28;20485;-80
2023/08/05 04:04:17;;;;;;;113.73;3.43;;;20.00;56.50;;;;;;5039497;28;20453;-80
2023/08/05 04:06:45;;;;;;;113.40;3.20;;;20.00;56.50;;;;;;5039304;28;20855;-80
2023/08/05 04:09:11;;;;;;;113.50;3.30;;;19.80;56.40;;;;;;5039244;28;20784;-81
2023/08/05 04:11:37;;;;;;;115.87;3.63;;;19.70;56.00;;;;;;5040065;28;20416;-80
2023/08/05 04:14:03;;;;;;;113.97;3.53;;;20.00;56.80;;;;;;5039921;28;20184;-80
2023/08/05 04:16:30;;;;;;;113.50;3.33;;;19.70;56.90;;;;;;5039429;28;20424;-80
2023/08/05 04:18:57;;;;;;;114.07;3.80;;;19.70;56.70;;;;;;5039000;28;20460;-81
2023/08/05 04:21:27;;;;;;;113.67;3.60;;;19.80;57.10;;;;;;5039221;28;20468;-80
2023/08/05 04:23:54;;;;;;;113.80;3.50;;;19.50;57.40;;;;;;5038896;28;20440;-80
2023/08/05 04:26:20;;;;;;;113.10;3.10;;;19.80;56.60;;;;;;5039605;28;20416;-80
2023/08/05 04:28:45;;;;;;;113.70;3.33;;;20.20;56.90;;;;;;5040690;28;20428;-80
2023/08/05 04:31:11;;;;;;;113.67;3.30;;;19.90;56.40;;;;;;5038844;28;20272;-80
2023/08/05 04:33:37;;;;;;;113.97;3.60;;;20.00;56.90;;;;;;5039033;28;20177;-80
2023/08/05 04:36:03;;;;;;;113.77;3.40;;;20.10;57.20;;;;;;5038852;28;20211;-80
2023/08/05 04:38:28;;;;;;;113.97;3.60;;;19.70;56.50;;;;;;5038496;28;20572;-80
2023/08/05 04:40:54;;;;;;;113.90;3.50;;;19.80;57.20;;;;;;5039255;28;20205;-80
2023/08/05 04:43:19;;;;;;;114.37;3.93;;;19.80;57.20;;;;;;5038720;28;20633;-80
2023/08/05 04:45:50;;;;;;;113.90;3.40;;;19.90;57.40;;;;;;5038793;28;20171;-80
2023/08/05 04:48:15;;;;;;;113.77;3.33;;;20.00;57.40;;;;;;5038892;28;20199;-81
2023/08/05 04:50:41;;;;;;;113.87;3.70;;;19.70;57.30;;;;;;5038980;28;20503;-80
2023/08/05 04:53:06;;;;;;;113.87;3.40;;;20.00;56.10;;;;;;5038975;28;20219;-81
2023/08/05 04:55:32;;;;;;;114.00;3.60;;;20.00;54.80;;;;;;5038866;28;20180;-81
2023/08/05 04:57:58;;;;;;;113.70;3.20;;;20.10;55.30;;;;;;5038567;28;20182;-80
2023/08/05 05:00:25;;;;;;;113.47;3.10;;;19.90;56.90;;;;;;5039205;28;20190;-81
2023/08/05 05:02:51;;;;;;;114.00;3.43;;;19.70;56.70;;;;;;5038488;28;20227;-80
2023/08/05 05:05:17;;;;;;;113.53;3.27;;;19.70;56.50;;;;;;5038818;28;20400;-81
2023/08/05 05:07:43;;;;;;;113.70;3.20;;;19.60;56.10;;;;;;5038422;28;20235;-80
2023/08/05 05:10:08;;;;;;;113.93;3.50;;;19.60;56.70;;;;;;5038679;28;20189;-81
2023/08/05 05:12:34;;;;;;;114.20;3.70;;;19.60;56.80;;;;;;5038167;28;20487;-80
2023/08/05 05:15:00;;;;;;;113.70;3.30;;;20.10;54.90;;;;;;5038263;28;20177;-81
2023/08/05 05:17:25;;;;;;;114.10;3.70;;;19.90;55.90;;;;;;5038008;28;20170;-80
2023/08/05 05:19:51;;;;;;;114.40;3.60;;;20.10;54.90;;;;;;5037917;28;20213;-81
2023/08/05 05:22:17;;;;;;;114.07;3.70;;;20.50;52.60;;;;;;5037378;28;20300;-81
2023/08/05 05:24:48;;;;;;;113.70;3.37;;;20.40;50.90;;;;;;5038660;28;20252;-81
2023/08/05 05:27:14;;;;;;;114.17;3.80;;;20.20;53.20;;;;;;5038220;28;20408;-81
2023/08/05 05:29:41;;;;;;;113.80;3.33;;;20.00;55.00;;;;;;5038400;28;20454;-80
2023/08/05 05:32:06;;;;;;;113.97;3.50;;;20.30;55.40;;;;;;5038055;28;20494;-81
2023/08/05 05:34:32;;;;;;;114.07;3.60;;;19.90;54.40;;;;;;5038423;28;20454;-81
2023/08/05 05:36:57;;;;;;;116.27;3.57;;;20.50;54.10;;;;;;5037880;28;20201;-80
2023/08/05 05:39:23;;;;;;;113.87;3.40;;;20.10;54.20;;;;;;5038313;28;20275;-81
2023/08/05 05:41:49;;;;;;;113.87;3.63;;;20.20;55.20;;;;;;5038076;28;20201;-81
2023/08/05 05:44:14;;;;;;;114.37;3.77;;;20.20;52.10;;;;;;5038195;28;20179;-81
2023/08/05 05:46:40;;;;;;;114.30;3.93;;;19.30;57.20;;;;;;5037894;28;20175;-80
2023/08/05 05:49:06;;;;;;;114.47;3.70;;;18.80;58.20;;;;;;5037244;28;20186;-80
2023/08/05 05:51:32;;;;;;;113.80;3.57;;;18.70;60.20;;;;;;5037830;28;20180;-80
2023/08/05 05:53:58;;;;;;;114.17;3.50;;;19.00;61.10;;;;;;5037593;28;20418;-80
2023/08/05 05:56:23;;;;;;;114.97;3.60;;;18.90;61.50;;;;;;5038081;28;20448;-81
2023/08/05 05:58:50;;;;;;;114.00;3.40;;;19.00;60.60;;;;;;5038011;28;20193;-80
2023/08/05 06:01:16;;;;;;;114.27;3.57;;;18.50;60.20;;;;;;5039823;28;20240;-80
2023/08/05 06:03:42;;;;;;;114.23;3.63;;;17.90;64.90;;;;;;5040824;28;20417;-80
2023/08/05 06:06:08;;;;;;;113.40;3.20;;;17.60;70.30;;;;;;5041269;28;20564;-81
2023/08/05 06:08:36;;;;;;;113.77;3.23;;;18.30;68.10;;;;;;5040369;28;20241;-81
2023/08/05 06:11:03;;;;;;;113.80;3.30;;;17.70;69.70;;;;;;5039138;28;20223;-81
2023/08/05 06:13:28;;;;;;;113.90;3.30;;;18.10;67.70;;;;;;5033539;28;20455;-80
2023/08/05 06:15:54;;;;;;;114.40;3.77;;;18.20;63.30;;;;;;5033414;28;20416;-81
2023/08/05 06:18:20;;;;;;;113.80;3.33;;;18.20;63.50;;;;;;5032574;28;20210;-81
2023/08/05 06:20:49;;;;;;;114.53;3.60;;;17.90;65.00;;;;;;5032987;28;20220;-81
2023/08/05 06:23:15;;;;;;;114.00;3.40;;;18.40;64.30;;;;;;5033197;28;20173;-81
2023/08/05 06:25:41;;;;;;;113.80;3.37;;;19.40;56.70;;;;;;5034247;28;20825;-81
2023/08/05 06:28:07;;;;;;;113.37;3.07;;;19.50;56.90;;;;;;5034701;28;20840;-81
2023/08/05 06:30:34;;;;;;;114.07;3.67;;;20.00;53.10;;;;;;5036081;28;20568;-81
2023/08/05 06:33:00;;;;;;;113.70;3.27;;;20.40;50.80;;;;;;5036294;28;20407;-80
2023/08/05 06:35:25;;;;;;;114.40;3.60;;;20.50;49.80;;;;;;5035865;28;20410;-81
2023/08/05 06:37:51;;;;;;;113.60;3.20;;;20.40;50.60;;;;;;5036443;28;20414;-81
2023/08/05 06:40:16;;;;;;;113.90;3.60;;;20.60;49.20;;;;;;5034362;28;20222;-81
2023/08/05 06:42:42;;;;;;;113.50;3.20;;;20.50;49.70;;;;;;5035656;28;20740;-81
2023/08/05 06:45:08;;;;;;;113.37;3.00;;;20.60;48.80;;;;;;5036042;28;20201;-81
2023/08/05 06:47:35;;;;;;;113.47;3.10;;;20.60;49.50;;;;;;5036123;28;20414;-81
2023/08/05 06:50:03;;;;;;;113.67;3.23;;;20.20;50.20;;;;;;5035329;28;20885;-81
2023/08/05 06:52:28;;;;;;;113.37;3.07;;;20.00;53.00;;;;;;5035371;28;20414;-81
2023/08/05 06:54:55;;;;;;;113.77;3.50;;;19.20;57.90;;;;;;5035262;28;20447;-81
2023/08/05 06:57:21;;;;;;;113.27;3.00;;;19.70;54.10;;;;;;5035724;28;20548;-81
2023/08/05 06:59:47;;;;;;;113.70;3.40;;;20.20;52.80;;;;;;5035438;28;20446;-81
2023/08/05 07:02:12;;;;;;;113.90;3.47;;;20.60;49.00;;;;;;5034892;28;20228;-81
2023/08/05 07:04:38;;;;;;;113.60;3.27;;;20.30;52.70;;;;;;5034490;28;20178;-80
2023/08/05 07:07:03;;;;;;;113.67;3.40;;;20.00;53.20;;;;;;5035092;28;20175;-81
2023/08/05 07:09:29;;;;;;;114.47;3.70;;;19.70;51.20;;;;;;5035161;28;20321;-81
2023/08/05 07:11:55;;;;;;;113.07;3.13;;;19.30;54.70;;;;;;5035660;28;20492;-81
2023/08/05 07:14:20;;;;;;;113.70;3.27;;;20.00;50.80;;;;;;5035582;28;20176;-81
2023/08/05 07:16:46;;;;;;;113.60;3.40;;;19.90;49.60;;;;;;5036453;28;20180;-80
2023/08/05 07:19:11;;;;;;;112.97;2.97;;;19.30;53.20;;;;;;5035098;28;20310;-81
2023/08/05 07:21:37;;;;;;;113.23;3.17;;;19.10;57.00;;;;;;5036408;28;20199;-80
2023/08/05 07:24:03;;;;;;;113.57;3.40;;;19.00;57.40;;;;;;5037722;28;20199;-81
2023/08/05 07:26:28;;;;;;;113.40;3.40;;;18.60;58.00;;;;;;5039676;28;20228;-80
2023/08/05 07:28:54;;;;;;;113.27;3.27;;;18.60;58.60;;;;;;5038713;28;20197;-81
2023/08/05 07:31:19;;;;;;;113.40;3.57;;;18.70;56.10;;;;;;5038665;28;20191;-81
2023/08/05 07:33:46;;;;;;;113.20;3.40;;;19.00;56.90;;;;;;5040121;28;20173;-81
2023/08/05 07:36:12;;;;;;;115.50;3.80;;;19.50;54.10;;;;;;5040529;28;20326;-81
2023/08/05 07:38:40;;;;;;;112.80;3.13;;;19.00;57.80;;;;;;5039310;28;20472;-81
2023/08/05 07:41:06;;;;;;;112.70;3.20;;;19.30;55.40;;;;;;5039425;28;20462;-80
2023/08/05 07:43:35;;;;;;;112.60;3.13;;;19.60;54.50;;;;;;5039077;28;20412;-80
2023/08/05 07:46:02;;;;;;;112.93;3.47;;;20.10;52.20;;;;;;5038377;28;20406;-81
2023/08/05 07:48:34;;;;;;;112.80;3.23;;;19.80;52.40;;;;;;5038621;28;20438;-80
2023/08/05 07:51:00;;;;;;;112.30;2.80;;;19.70;53.70;;;;;;5039199;28;20426;-81
2023/08/05 07:53:28;;;;;;;112.40;3.10;;;19.70;53.60;;;;;;5038849;28;20468;-80
2023/08/05 07:55:54;;;;;;;112.07;3.10;;;20.00;52.20;;;;;;5038574;28;20178;-81
2023/08/05 07:58:21;;;;;;;113.40;3.17;;;20.00;53.00;;;;;;5038908;28;20928;-81
2023/08/05 08:00:46;;;;;;;112.40;3.40;;;20.60;49.40;;;;;;5038980;28;20458;-81
2023/08/05 08:03:12;;;;;;;112.40;3.30;;;20.90;47.90;;;;;;5039236;28;20429;-81
2023/08/05 08:05:37;;;;;;;116.00;3.40;;;21.10;46.80;;;;;;5037844;28;20255;-81
2023/08/05 08:08:03;;;;;;;112.40;3.50;;;20.20;50.90;;;;;;5038565;28;20176;-81
2023/08/05 08:10:29;;;;;;;112.07;3.40;;;20.40;49.40;;;;;;5038954;28;20259;-81
2023/08/05 08:12:54;;;;;;;112.00;3.30;;;20.80;48.30;;;;;;5038034;28;20178;-81
2023/08/05 08:15:21;;;;;;;112.57;3.43;;;20.70;47.10;;;;;;5037754;28;20237;-81
2023/08/05 08:17:46;;;;;;;111.70;3.30;;;21.20;46.90;;;;;;5038276;28;20316;-81
2023/08/05 08:20:12;;;;;;;111.57;3.10;;;21.20;45.80;;;;;;5041562;28;20508;-81
2023/08/05 08:22:38;;;;;;;111.40;2.90;;;21.50;48.10;;;;;;5043647;28;20208;-81
2023/08/05 08:25:04;;;;;;;112.27;3.67;;;20.60;48.10;;;;;;5035300;28;20418;-81
2023/08/05 08:27:30;;;;;;;113.40;3.60;;;21.00;48.30;;;;;;5035313;28;20270;-81
2023/08/05 08:29:55;;;;;;;111.93;3.43;;;21.50;46.20;;;;;;5038768;28;20897;-81
2023/08/05 08:32:21;;;;;;;111.60;3.00;;;21.50;44.70;;;;;;5039961;28;20186;-81
2023/08/05 08:34:46;;;;;;;111.87;3.33;;;21.50;45.90;;;;;;5039033;28;20216;-81
2023/08/05 08:37:12;;;;;;;112.00;3.30;;;21.50;45.90;;;;;;5038808;28;20248;-81
2023/08/05 08:39:37;;;;;;;113.27;3.60;;;20.80;47.10;;;;;;5039263;28;20200;-80
2023/08/05 08:42:03;;;;;;;112.17;3.57;;;20.70;47.80;;;;;;5039051;28;20683;-80
2023/08/05 08:44:31;;;;;;;126.43;5.20;;;20.70;50.30;;;;;;5039237;28;20176;-81
2023/08/05 08:46:58;;;;;;;112.30;3.80;;;21.40;48.30;;;;;;5039322;28;20175;-81
2023/08/05 08:49:25;;;;;;;111.50;3.30;;;21.60;44.60;;;;;;5037499;28;20514;-80
2023/08/05 08:51:53;;;;;;;111.57;3.33;;;21.70;44.10;;;;;;5038875;28;20426;-80
2023/08/05 08:54:20;;;;;;;111.07;2.97;;;21.80;44.10;;;;;;5037859;28;20423;-80
2023/08/05 08:56:46;;;;;;;111.90;3.33;;;21.70;44.00;;;;;;5038285;28;20403;-80
2023/08/05 08:59:12;;;;;;;111.30;3.30;;;21.30;44.00;;;;;;5038738;28;20435;-80
2023/08/05 09:01:42;;;;;;;110.77;3.10;;;21.40;48.70;;;;;;5038949;28;20657;-80
2023/08/05 09:04:09;;;;;;;112.53;3.37;;;22.30;45.60;;;;;;5038798;28;20501;-80
2023/08/05 09:06:37;;;;;;;111.77;3.80;;;21.80;44.70;;;;;;5038992;28;20425;-80
2023/08/05 09:09:02;;;;;;;111.77;3.63;;;22.20;43.70;;;;;;5037757;28;20462;-81
2023/08/05 09:11:28;;;;;;;111.17;3.37;;;22.60;43.20;;;;;;5038571;28;20413;-81
2023/08/05 09:13:53;;;;;;;110.47;2.90;;;22.20;42.70;;;;;;5038617;28;20182;-81
2023/08/05 09:16:19;;;;;;;111.00;3.07;;;22.50;43.90;;;;;;5041530;28;20202;-81
2023/08/05 09:18:52;;;;;;;111.10;3.30;;;22.70;40.20;;;;;;5037934;28;20215;-80
2023/08/05 09:21:26;;;;;;;110.80;3.20;;;22.40;39.60;;;;;;5037984;28;20741;-81
2023/08/05 09:23:56;;;;;;;111.07;3.33;;;22.80;39.70;;;;;;5037353;28;20419;-80
2023/08/05 09:26:29;;;;;;;114.33;3.60;;;22.60;37.80;;;;;;5037671;28;20414;-81
2023/08/05 09:28:58;;;;;;;110.37;3.23;;;22.50;39.30;;;;;;5038545;28;20431;-81
2023/08/05 09:31:24;;;;;;;110.83;3.13;;;22.80;36.50;;;;;;5037778;28;20561;-81
2023/08/05 09:33:50;;;;;;;110.40;3.20;;;23.20;36.50;;;;;;5037934;28;20446;-80
2023/08/05 09:36:20;;;;;;;110.47;3.20;;;22.20;36.60;;;;;;5035752;28;20215;-80
2023/08/05 09:38:46;;;;;;;110.73;3.17;;;21.70;39.50;;;;;;5038022;28;20904;-80
2023/08/05 09:41:11;;;;;;;110.27;3.30;;;21.30;40.40;;;;;;5037792;28;20484;-80
2023/08/05 09:43:43;;;;;;;109.67;2.80;;;21.50;39.10;;;;;;5038203;28;20180;-80
2023/08/05 09:46:12;;;;;;;109.47;2.90;;;21.40;40.30;;;;;;5037025;28;20583;-80
2023/08/05 09:48:44;;;;;;;109.77;3.13;;;22.10;43.60;;;;;;5037768;28;20969;-81
2023/08/05 09:51:17;;;;;;;109.60;3.03;;;22.80;36.00;;;;;;5038130;28;20420;-81
2023/08/05 09:53:43;;;;;;;110.47;3.10;;;23.20;38.10;;;;;;5037912;28;20411;-81
2023/08/05 09:56:10;;;;;;;109.20;3.00;;;23.40;35.10;;;;;;5037209;28;20920;-81
2023/08/05 09:58:39;;;;;;;109.47;3.03;;;23.40;34.40;;;;;;5037455;28;20484;-81
2023/08/05 10:01:07;;;;;;;109.13;3.00;;;23.10;34.90;;;;;;5037746;28;20508;-81
2023/08/05 10:03:37;;;;;;;109.87;3.40;;;23.80;36.20;;;;;;5037528;28;20410;-81
2023/08/05 10:06:08;;;;;;;109.30;3.10;;;23.60;36.60;;;;;;5038046;28;20466;-81
2023/08/05 10:08:40;;;;;;;109.10;3.10;;;23.20;35.20;;;;;;5037393;28;20429;-81
2023/08/05 10:11:07;;;;;;;109.10;3.00;;;23.40;35.80;;;;;;5036982;28;20412;-81
2023/08/05 10:13:38;;;;;;;108.97;2.77;;;23.50;35.40;;;;;;5035354;28;20461;-81
2023/08/05 10:16:06;;;;;;;108.97;3.10;;;23.60;35.00;;;;;;5035205;28;20431;-80
2023/08/05 10:18:33;;;;;;;108.87;3.03;;;22.80;34.50;;;;;;5036872;28;20453;-81
2023/08/05 10:21:03;;;;;;;108.87;2.93;;;22.50;36.10;;;;;;5036525;28;20971;-81
2023/08/05 10:23:32;;;;;;;109.10;3.70;;;21.60;37.20;;;;;;5037062;28;20473;-80
2023/08/05 10:26:00;;;;;;;108.37;2.87;;;21.20;40.00;;;;;;5035045;28;20511;-80
2023/08/05 10:28:25;;;;;;;108.67;3.00;;;21.60;38.90;;;;;;5036767;28;20462;-81
2023/08/05 10:30:53;;;;;;;109.43;3.53;;;21.00;39.20;;;;;;5037305;28;20421;-81
2023/08/05 10:33:19;;;;;;;108.80;3.27;;;21.90;38.10;;;;;;5036215;28;20174;-80
2023/08/05 10:35:46;;;;;;;108.37;3.00;;;21.80;37.40;;;;;;5035543;28;20461;-81
2023/08/05 10:38:16;;;;;;;108.50;3.03;;;22.10;37.30;;;;;;5037155;28;20447;-80
2023/08/05 10:40:46;;;;;;;108.27;3.10;;;21.40;37.40;;;;;;5036415;28;20440;-80
2023/08/05 10:43:31;;;;;;;108.60;3.30;;;21.30;39.70;;;;;;5036753;28;20487;-80
2023/08/05 10:45:58;;;;;;;111.40;3.60;;;21.40;36.60;;;;;;5017429;28;20406;-81
2023/08/05 10:48:34;;;;;;;108.10;3.10;;;22.10;35.50;;;;;;5017011;28;20902;-80
2023/08/05 10:51:11;;;;;;;108.30;3.17;;;22.20;34.90;;;;;;5017279;28;20442;-81
2023/08/05 10:53:38;;;;;;;109.50;3.17;;;22.00;35.00;;;;;;5020307;28;20418;-81
2023/08/05 10:56:10;;;;;;;108.37;3.00;;;22.00;34.40;;;;;;5017250;28;20925;-81
2023/08/05 10:58:37;;;;;;;110.87;3.27;;;22.70;35.70;;;;;;5019847;28;20469;-81
2023/08/05 11:01:05;;;;;;;108.17;3.10;;;22.30;31.90;;;;;;5021317;28;20483;-81
2023/08/05 11:03:31;;;;;;;107.37;2.53;;;22.50;32.60;;;;;;5021039;28;20472;-81
2023/08/05 11:06:04;;;;;;;107.90;3.30;;;22.90;31.90;;;;;;5020537;28;20422;-81
2023/08/05 11:08:34;;;;;;;107.17;2.90;;;23.10;31.10;;;;;;5025018;28;20481;-81
2023/08/05 11:11:02;;;;;;;107.50;2.90;;;22.30;33.20;;;;;;5041101;28;20422;-81
2023/08/05 11:13:35;;;;;;;108.07;3.30;;;22.80;34.50;;;;;;5040421;28;20925;-81
2023/08/05 11:16:11;;;;;;;107.40;2.80;;;23.10;30.40;;;;;;5040722;28;20917;-81
2023/08/05 11:18:56;;;;;;;109.50;3.40;;;24.00;33.90;;;;;;5040716;28;20453;-81
2023/08/05 11:21:22;;;;;;;107.43;3.03;;;24.70;33.30;;;;;;5040665;28;20477;-81
2023/08/05 11:23:48;;;;;;;107.97;3.20;;;25.30;29.70;;;;;;5040596;28;20414;-81
2023/08/05 11:26:14;;;;;;;107.10;2.70;;;25.80;32.10;;;;;;5046830;28;20426;-81
2023/08/05 11:28:44;;;;;;;107.57;3.17;;;26.00;28.90;;;;;;5060507;28;20192;-81
2023/08/05 11:31:19;;;;;;;107.60;2.93;;;26.10;27.30;;;;;;5053150;28;20180;-81
2023/08/05 11:33:48;;;;;;;106.77;2.43;;;24.90;28.80;;;;;;5039901;28;20918;-81
2023/08/05 11:36:13;;;;;;;108.77;2.83;;;24.80;27.90;;;;;;5024208;28;20455;-81
2023/08/05 11:38:39;;;;;;;107.30;3.10;;;24.50;28.90;;;;;;5029769;28;20462;-81
2023/08/05 11:41:05;;;;;;;108.00;2.90;;;24.50;28.30;;;;;;5036392;28;20208;-81
2023/08/05 11:43:31;;;;;;;106.40;2.73;;;24.10;30.20;;;;;;5037396;28;20184;-81
2023/08/05 11:45:57;;;;;;;106.57;2.83;;;25.30;26.90;;;;;;5039430;28;20180;-81
2023/08/05 11:48:27;;;;;;;106.17;2.80;;;24.70;27.30;;;;;;5039426;28;20423;-81
2023/08/05 11:51:05;;;;;;;105.67;2.57;;;25.40;26.50;;;;;;5038873;28;20422;-81
2023/08/05 11:53:30;;;;;;;106.10;2.63;;;25.60;27.50;;;;;;5038743;28;20402;-81
2023/08/05 11:55:56;;;;;;;106.00;2.87;;;27.00;22.80;;;;;;5039919;28;20430;-81
2023/08/05 11:58:26;;;;;;;105.70;2.63;;;26.20;23.40;;;;;;5031933;28;20288;-81
2023/08/05 12:00:57;;;;;;;105.13;2.40;;;26.80;26.00;;;;;;5039630;28;20550;-81
2023/08/05 12:03:29;;;;;;;104.57;2.27;;;27.50;24.20;;;;;;5039734;28;20538;-82
2023/08/05 12:06:00;;;;;;;104.47;2.53;;;27.10;22.90;;;;;;5044983;28;20422;-81
2023/08/05 12:08:38;;;;;;;104.27;2.53;;;25.90;24.90;;;;;;5038643;28;20431;-82
2023/08/05 12:11:03;;;;;;;103.87;2.37;;;27.00;25.90;;;;;;5037630;28;20414;-82
2023/08/05 12:13:34;;;;;;;104.07;2.37;;;27.70;23.10;;;;;;5040141;28;20465;-82
2023/08/05 12:15:59;;;;;;;104.00;2.43;;;26.90;23.80;;;;;;5040225;28;20173;-82
2023/08/05 12:18:25;;;;;;;103.57;2.30;;;25.90;24.00;;;;;;5038071;28;20463;-82
2023/08/05 12:20:51;;;;;;;103.43;2.30;;;26.20;23.60;;;;;;5035740;28;20208;-81
2023/08/05 12:23:16;;;;;;;103.30;2.20;;;27.10;26.40;;;;;;5035125;28;20234;-81
2023/08/05 12:25:42;;;;;;;102.93;2.23;;;25.80;23.20;;;;;;5036175;28;20658;-81